sensor_id;sensor_type;location;lat;lon;timestamp;P1;durP1;ratioP1;P2;durP2;ratioP2
84286;SDS011;74445;55.252;61.092;2023-12-20T00:00:19;5.40;;;3.58;;
84286;SDS011;74445;55.252;61.092;2023-12-20T00:02:46;6.80;;;3.67;;
84286;SDS011;74445;55.252;61.092;2023-12-20T00:05:13;7.47;;;3.55;;
84286;SDS011;74445;55.252;61.092;2023-12-20T00:07:40;5.88;;;3.33;;
84286;SDS011;74445;55.252;61.092;2023-12-20T00:10:08;10.00;;;3.75;;
84286;SDS011;74445;55.252;61.092;2023-12-20T00:12:35;11.10;;;3.80;;
84286;SDS011;74445;55.252;61.092;2023-12-20T00:15:02;6.78;;;3.70;;
84286;SDS011;74445;55.252;61.092;2023-12-20T00:17:30;9.85;;;4.25;;
84286;SDS011;74445;55.252;61.092;2023-12-20T00:19:56;7.40;;;3.42;;
84286;SDS011;74445;55.252;61.092;2023-12-20T00:22:23;5.47;;;3.28;;
84286;SDS011;74445;55.252;61.092;2023-12-20T00:24:50;6.25;;;3.38;;
84286;SDS011;74445;55.252;61.092;2023-12-20T00:27:18;5.30;;;3.15;;
84286;SDS011;74445;55.252;61.092;2023-12-20T00:29:45;5.88;;;3.50;;
84286;SDS011;74445;55.252;61.092;2023-12-20T00:32:15;7.65;;;3.55;;
84286;SDS011;74445;55.252;61.092;2023-12-20T00:34:42;5.95;;;3.47;;
84286;SDS011;74445;55.252;61.092;2023-12-20T00:37:10;9.80;;;4.22;;
84286;SDS011;74445;55.252;61.092;2023-12-20T00:39:36;6.10;;;3.42;;
84286;SDS011;74445;55.252;61.092;2023-12-20T00:42:03;7.05;;;3.03;;
84286;SDS011;74445;55.252;61.092;2023-12-20T00:44:32;6.47;;;2.83;;
84286;SDS011;74445;55.252;61.092;2023-12-20T00:46:59;6.07;;;2.95;;
84286;SDS011;74445;55.252;61.092;2023-12-20T00:49:25;7.35;;;3.38;;
84286;SDS011;74445;55.252;61.092;2023-12-20T00:51:52;4.82;;;2.92;;
84286;SDS011;74445;55.252;61.092;2023-12-20T00:54:19;3.30;;;1.77;;
84286;SDS011;74445;55.252;61.092;2023-12-20T00:56:45;7.60;;;3.40;;
84286;SDS011;74445;55.252;61.092;2023-12-20T00:59:12;9.23;;;3.78;;
84286;SDS011;74445;55.252;61.092;2023-12-20T01:01:41;8.07;;;3.92;;
84286;SDS011;74445;55.252;61.092;2023-12-20T01:04:08;7.80;;;3.28;;
84286;SDS011;74445;55.252;61.092;2023-12-20T01:09:32;6.53;;;3.50;;
84286;SDS011;74445;55.252;61.092;2023-12-20T01:11:59;6.85;;;3.25;;
84286;SDS011;74445;55.252;61.092;2023-12-20T01:14:25;5.72;;;2.67;;
84286;SDS011;74445;55.252;61.092;2023-12-20T01:16:53;9.02;;;3.25;;
84286;SDS011;74445;55.252;61.092;2023-12-20T01:19:20;7.18;;;3.20;;
84286;SDS011;74445;55.252;61.092;2023-12-20T01:21:46;5.72;;;2.97;;
84286;SDS011;74445;55.252;61.092;2023-12-20T01:24:13;5.30;;;2.72;;
84286;SDS011;74445;55.252;61.092;2023-12-20T01:26:39;8.35;;;2.70;;
84286;SDS011;74445;55.252;61.092;2023-12-20T01:29:06;6.25;;;2.45;;
84286;SDS011;74445;55.252;61.092;2023-12-20T01:31:32;7.07;;;3.40;;
84286;SDS011;74445;55.252;61.092;2023-12-20T01:34:00;6.75;;;3.13;;
84286;SDS011;74445;55.252;61.092;2023-12-20T01:36:27;5.22;;;2.75;;
84286;SDS011;74445;55.252;61.092;2023-12-20T01:38:53;6.97;;;3.05;;
84286;SDS011;74445;55.252;61.092;2023-12-20T01:41:19;7.20;;;3.55;;
84286;SDS011;74445;55.252;61.092;2023-12-20T01:43:46;8.60;;;3.47;;
84286;SDS011;74445;55.252;61.092;2023-12-20T01:46:12;9.77;;;4.18;;
84286;SDS011;74445;55.252;61.092;2023-12-20T01:48:40;11.63;;;4.85;;
84286;SDS011;74445;55.252;61.092;2023-12-20T01:51:08;8.40;;;3.83;;
84286;SDS011;74445;55.252;61.092;2023-12-20T01:53:36;8.75;;;4.55;;
84286;SDS011;74445;55.252;61.092;2023-12-20T01:56:03;6.88;;;3.35;;
84286;SDS011;74445;55.252;61.092;2023-12-20T01:58:30;9.32;;;3.97;;
84286;SDS011;74445;55.252;61.092;2023-12-20T02:00:57;8.40;;;3.55;;
84286;SDS011;74445;55.252;61.092;2023-12-20T02:03:23;8.90;;;3.90;;
84286;SDS011;74445;55.252;61.092;2023-12-20T02:05:50;14.23;;;4.97;;
84286;SDS011;74445;55.252;61.092;2023-12-20T02:08:19;8.88;;;4.53;;
84286;SDS011;74445;55.252;61.092;2023-12-20T02:10:45;8.82;;;3.92;;
84286;SDS011;74445;55.252;61.092;2023-12-20T02:13:12;12.60;;;5.35;;
84286;SDS011;74445;55.252;61.092;2023-12-20T02:15:39;9.25;;;3.85;;
84286;SDS011;74445;55.252;61.092;2023-12-20T02:18:07;15.82;;;6.18;;
84286;SDS011;74445;55.252;61.092;2023-12-20T02:20:34;10.02;;;4.15;;
84286;SDS011;74445;55.252;61.092;2023-12-20T02:23:02;11.57;;;4.70;;
84286;SDS011;74445;55.252;61.092;2023-12-20T02:25:28;7.13;;;3.38;;
84286;SDS011;74445;55.252;61.092;2023-12-20T02:27:55;8.63;;;3.78;;
84286;SDS011;74445;55.252;61.092;2023-12-20T02:30:21;8.80;;;4.25;;
84286;SDS011;74445;55.252;61.092;2023-12-20T02:32:48;12.73;;;4.60;;
84286;SDS011;74445;55.252;61.092;2023-12-20T02:35:15;8.57;;;4.47;;
84286;SDS011;74445;55.252;61.092;2023-12-20T02:37:42;26.48;;;9.00;;
84286;SDS011;74445;55.252;61.092;2023-12-20T02:40:10;11.00;;;4.97;;
84286;SDS011;74445;55.252;61.092;2023-12-20T02:42:37;17.30;;;5.68;;
84286;SDS011;74445;55.252;61.092;2023-12-20T02:45:03;5.30;;;2.72;;
84286;SDS011;74445;55.252;61.092;2023-12-20T02:47:30;12.10;;;5.35;;
84286;SDS011;74445;55.252;61.092;2023-12-20T02:49:57;8.20;;;4.05;;
84286;SDS011;74445;55.252;61.092;2023-12-20T02:52:23;13.50;;;4.75;;
84286;SDS011;74445;55.252;61.092;2023-12-20T02:54:50;10.30;;;5.32;;
84286;SDS011;74445;55.252;61.092;2023-12-20T02:57:18;12.48;;;6.07;;
84286;SDS011;74445;55.252;61.092;2023-12-20T02:59:44;13.00;;;6.15;;
84286;SDS011;74445;55.252;61.092;2023-12-20T03:02:11;8.25;;;4.05;;
84286;SDS011;74445;55.252;61.092;2023-12-20T03:04:37;12.23;;;5.75;;
84286;SDS011;74445;55.252;61.092;2023-12-20T03:07:04;13.35;;;5.60;;
84286;SDS011;74445;55.252;61.092;2023-12-20T03:09:30;12.25;;;4.28;;
84286;SDS011;74445;55.252;61.092;2023-12-20T03:11:56;8.30;;;3.72;;
84286;SDS011;74445;55.252;61.092;2023-12-20T03:14:24;10.00;;;4.13;;
84286;SDS011;74445;55.252;61.092;2023-12-20T03:16:51;8.38;;;3.70;;
84286;SDS011;74445;55.252;61.092;2023-12-20T03:19:17;12.20;;;5.47;;
84286;SDS011;74445;55.252;61.092;2023-12-20T03:21:47;10.60;;;5.85;;
84286;SDS011;74445;55.252;61.092;2023-12-20T03:24:13;7.10;;;4.15;;
84286;SDS011;74445;55.252;61.092;2023-12-20T03:26:40;14.27;;;5.38;;
84286;SDS011;74445;55.252;61.092;2023-12-20T03:29:06;13.30;;;5.55;;
84286;SDS011;74445;55.252;61.092;2023-12-20T03:31:34;12.55;;;5.65;;
84286;SDS011;74445;55.252;61.092;2023-12-20T03:34:00;6.05;;;3.13;;
84286;SDS011;74445;55.252;61.092;2023-12-20T03:36:27;8.60;;;4.68;;
84286;SDS011;74445;55.252;61.092;2023-12-20T03:38:53;10.13;;;5.03;;
84286;SDS011;74445;55.252;61.092;2023-12-20T03:41:20;14.52;;;5.60;;
84286;SDS011;74445;55.252;61.092;2023-12-20T03:43:46;10.10;;;4.90;;
84286;SDS011;74445;55.252;61.092;2023-12-20T03:46:12;12.45;;;6.13;;
84286;SDS011;74445;55.252;61.092;2023-12-20T03:48:40;12.68;;;6.32;;
84286;SDS011;74445;55.252;61.092;2023-12-20T03:51:07;10.85;;;5.20;;
84286;SDS011;74445;55.252;61.092;2023-12-20T03:53:33;7.25;;;4.68;;
84286;SDS011;74445;55.252;61.092;2023-12-20T03:56:00;8.52;;;4.72;;
84286;SDS011;74445;55.252;61.092;2023-12-20T03:58:27;8.55;;;3.95;;
84286;SDS011;74445;55.252;61.092;2023-12-20T04:00:54;5.95;;;3.35;;
84286;SDS011;74445;55.252;61.092;2023-12-20T04:03:20;12.57;;;5.75;;
84286;SDS011;74445;55.252;61.092;2023-12-20T04:05:48;11.50;;;5.43;;
84286;SDS011;74445;55.252;61.092;2023-12-20T04:08:15;6.63;;;2.88;;
84286;SDS011;74445;55.252;61.092;2023-12-20T04:10:42;9.77;;;4.82;;
84286;SDS011;74445;55.252;61.092;2023-12-20T04:13:08;9.45;;;4.57;;
84286;SDS011;74445;55.252;61.092;2023-12-20T04:15:35;9.43;;;4.63;;
84286;SDS011;74445;55.252;61.092;2023-12-20T04:18:01;8.15;;;3.58;;
84286;SDS011;74445;55.252;61.092;2023-12-20T04:20:28;11.85;;;5.68;;
84286;SDS011;74445;55.252;61.092;2023-12-20T04:22:56;12.10;;;5.88;;
84286;SDS011;74445;55.252;61.092;2023-12-20T04:25:23;9.50;;;4.47;;
84286;SDS011;74445;55.252;61.092;2023-12-20T04:27:49;9.32;;;4.20;;
84286;SDS011;74445;55.252;61.092;2023-12-20T04:30:16;9.88;;;5.18;;
84286;SDS011;74445;55.252;61.092;2023-12-20T04:32:42;7.05;;;3.60;;
84286;SDS011;74445;55.252;61.092;2023-12-20T04:35:09;10.30;;;4.45;;
84286;SDS011;74445;55.252;61.092;2023-12-20T04:37:35;11.65;;;5.20;;
84286;SDS011;74445;55.252;61.092;2023-12-20T04:40:04;9.05;;;4.60;;
84286;SDS011;74445;55.252;61.092;2023-12-20T04:42:31;8.52;;;4.47;;
84286;SDS011;74445;55.252;61.092;2023-12-20T04:44:59;10.13;;;4.57;;
84286;SDS011;74445;55.252;61.092;2023-12-20T04:47:26;12.57;;;5.70;;
84286;SDS011;74445;55.252;61.092;2023-12-20T04:49:52;11.25;;;5.75;;
84286;SDS011;74445;55.252;61.092;2023-12-20T04:52:19;10.25;;;5.07;;
84286;SDS011;74445;55.252;61.092;2023-12-20T04:54:45;3.92;;;2.70;;
84286;SDS011;74445;55.252;61.092;2023-12-20T04:57:13;7.95;;;4.25;;
84286;SDS011;74445;55.252;61.092;2023-12-20T04:59:40;10.18;;;3.83;;
84286;SDS011;74445;55.252;61.092;2023-12-20T05:02:07;7.88;;;4.18;;
84286;SDS011;74445;55.252;61.092;2023-12-20T05:04:34;5.00;;;3.03;;
84286;SDS011;74445;55.252;61.092;2023-12-20T05:07:00;9.10;;;4.55;;
84286;SDS011;74445;55.252;61.092;2023-12-20T05:09:27;7.38;;;4.72;;
84286;SDS011;74445;55.252;61.092;2023-12-20T05:11:53;10.23;;;4.20;;
84286;SDS011;74445;55.252;61.092;2023-12-20T05:14:21;7.57;;;4.25;;
84286;SDS011;74445;55.252;61.092;2023-12-20T05:16:47;13.13;;;5.65;;
84286;SDS011;74445;55.252;61.092;2023-12-20T05:19:14;10.07;;;4.40;;
84286;SDS011;74445;55.252;61.092;2023-12-20T05:21:40;9.07;;;4.78;;
84286;SDS011;74445;55.252;61.092;2023-12-20T05:24:07;7.13;;;3.55;;
84286;SDS011;74445;55.252;61.092;2023-12-20T05:26:33;6.55;;;4.22;;
84286;SDS011;74445;55.252;61.092;2023-12-20T05:29:00;8.82;;;4.47;;
84286;SDS011;74445;55.252;61.092;2023-12-20T05:31:28;10.73;;;5.80;;
84286;SDS011;74445;55.252;61.092;2023-12-20T05:33:54;10.02;;;4.30;;
84286;SDS011;74445;55.252;61.092;2023-12-20T05:36:21;8.10;;;4.20;;
84286;SDS011;74445;55.252;61.092;2023-12-20T05:38:47;7.22;;;3.15;;
84286;SDS011;74445;55.252;61.092;2023-12-20T05:41:14;10.82;;;4.40;;
84286;SDS011;74445;55.252;61.092;2023-12-20T05:43:40;10.63;;;3.88;;
84286;SDS011;74445;55.252;61.092;2023-12-20T05:46:07;5.25;;;2.83;;
84286;SDS011;74445;55.252;61.092;2023-12-20T05:48:38;6.57;;;4.18;;
84286;SDS011;74445;55.252;61.092;2023-12-20T05:51:04;8.43;;;4.60;;
84286;SDS011;74445;55.252;61.092;2023-12-20T05:53:31;7.63;;;3.97;;
84286;SDS011;74445;55.252;61.092;2023-12-20T05:55:57;6.57;;;3.55;;
84286;SDS011;74445;55.252;61.092;2023-12-20T05:58:24;5.03;;;3.10;;
84286;SDS011;74445;55.252;61.092;2023-12-20T06:00:50;8.80;;;4.53;;
84286;SDS011;74445;55.252;61.092;2023-12-20T06:03:16;7.28;;;4.30;;
84286;SDS011;74445;55.252;61.092;2023-12-20T06:05:45;6.70;;;3.35;;
84286;SDS011;74445;55.252;61.092;2023-12-20T06:08:11;7.18;;;3.78;;
84286;SDS011;74445;55.252;61.092;2023-12-20T06:10:38;7.40;;;4.93;;
84286;SDS011;74445;55.252;61.092;2023-12-20T06:13:04;6.18;;;3.80;;
84286;SDS011;74445;55.252;61.092;2023-12-20T06:15:32;6.85;;;3.90;;
84286;SDS011;74445;55.252;61.092;2023-12-20T06:17:58;5.55;;;3.15;;
84286;SDS011;74445;55.252;61.092;2023-12-20T06:20:25;5.75;;;3.70;;
84286;SDS011;74445;55.252;61.092;2023-12-20T06:22:53;8.73;;;5.00;;
84286;SDS011;74445;55.252;61.092;2023-12-20T06:25:20;6.50;;;2.95;;
84286;SDS011;74445;55.252;61.092;2023-12-20T06:27:46;6.40;;;3.38;;
84286;SDS011;74445;55.252;61.092;2023-12-20T06:30:13;6.65;;;3.53;;
84286;SDS011;74445;55.252;61.092;2023-12-20T06:32:39;7.18;;;3.15;;
84286;SDS011;74445;55.252;61.092;2023-12-20T06:35:08;8.15;;;4.45;;
84286;SDS011;74445;55.252;61.092;2023-12-20T06:37:35;8.60;;;4.63;;
84286;SDS011;74445;55.252;61.092;2023-12-20T06:40:03;9.00;;;4.80;;
84286;SDS011;74445;55.252;61.092;2023-12-20T06:42:31;4.13;;;2.63;;
84286;SDS011;74445;55.252;61.092;2023-12-20T06:44:58;15.52;;;7.97;;
84286;SDS011;74445;55.252;61.092;2023-12-20T06:47:24;8.23;;;3.85;;
84286;SDS011;74445;55.252;61.092;2023-12-20T06:49:52;10.75;;;5.60;;
84286;SDS011;74445;55.252;61.092;2023-12-20T06:52:18;15.32;;;8.13;;
84286;SDS011;74445;55.252;61.092;2023-12-20T06:54:45;20.17;;;11.00;;
84286;SDS011;74445;55.252;61.092;2023-12-20T06:57:13;20.52;;;10.23;;
84286;SDS011;74445;55.252;61.092;2023-12-20T06:59:40;15.13;;;8.23;;
84286;SDS011;74445;55.252;61.092;2023-12-20T07:02:07;11.68;;;6.63;;
84286;SDS011;74445;55.252;61.092;2023-12-20T07:04:35;9.13;;;4.78;;
84286;SDS011;74445;55.252;61.092;2023-12-20T07:07:05;10.85;;;6.28;;
84286;SDS011;74445;55.252;61.092;2023-12-20T07:09:32;10.35;;;5.60;;
84286;SDS011;74445;55.252;61.092;2023-12-20T07:11:59;8.13;;;4.55;;
84286;SDS011;74445;55.252;61.092;2023-12-20T07:14:27;7.28;;;4.28;;
84286;SDS011;74445;55.252;61.092;2023-12-20T07:16:55;7.00;;;3.80;;
84286;SDS011;74445;55.252;61.092;2023-12-20T07:19:21;8.73;;;5.43;;
84286;SDS011;74445;55.252;61.092;2023-12-20T07:21:48;14.27;;;7.28;;
84286;SDS011;74445;55.252;61.092;2023-12-20T07:24:14;15.80;;;8.13;;
84286;SDS011;74445;55.252;61.092;2023-12-20T07:26:41;11.90;;;7.10;;
84286;SDS011;74445;55.252;61.092;2023-12-20T07:29:08;14.45;;;8.80;;
84286;SDS011;74445;55.252;61.092;2023-12-20T07:31:37;7.60;;;4.80;;
84286;SDS011;74445;55.252;61.092;2023-12-20T07:34:04;9.30;;;5.55;;
84286;SDS011;74445;55.252;61.092;2023-12-20T07:36:31;10.77;;;5.93;;
84286;SDS011;74445;55.252;61.092;2023-12-20T07:38:57;11.93;;;5.88;;
84286;SDS011;74445;55.252;61.092;2023-12-20T07:41:24;13.93;;;7.57;;
84286;SDS011;74445;55.252;61.092;2023-12-20T07:43:51;11.05;;;5.38;;
84286;SDS011;74445;55.252;61.092;2023-12-20T07:46:20;8.52;;;5.07;;
84286;SDS011;74445;55.252;61.092;2023-12-20T07:48:51;15.15;;;6.47;;
84286;SDS011;74445;55.252;61.092;2023-12-20T07:51:17;16.45;;;6.88;;
84286;SDS011;74445;55.252;61.092;2023-12-20T07:53:44;8.07;;;4.15;;
84286;SDS011;74445;55.252;61.092;2023-12-20T07:56:14;15.90;;;5.72;;
84286;SDS011;74445;55.252;61.092;2023-12-20T07:58:41;20.67;;;9.02;;
84286;SDS011;74445;55.252;61.092;2023-12-20T08:01:08;13.80;;;5.32;;
84286;SDS011;74445;55.252;61.092;2023-12-20T08:03:34;21.45;;;8.00;;
84286;SDS011;74445;55.252;61.092;2023-12-20T08:06:04;12.55;;;6.60;;
84286;SDS011;74445;55.252;61.092;2023-12-20T08:08:31;8.45;;;4.95;;
84286;SDS011;74445;55.252;61.092;2023-12-20T08:10:57;10.75;;;5.60;;
84286;SDS011;74445;55.252;61.092;2023-12-20T08:13:25;17.75;;;7.93;;
84286;SDS011;74445;55.252;61.092;2023-12-20T08:15:52;17.80;;;9.43;;
84286;SDS011;74445;55.252;61.092;2023-12-20T08:18:21;11.10;;;6.72;;
84286;SDS011;74445;55.252;61.092;2023-12-20T08:20:49;13.60;;;7.30;;
84286;SDS011;74445;55.252;61.092;2023-12-20T08:23:19;12.65;;;4.97;;
84286;SDS011;74445;55.252;61.092;2023-12-20T08:25:49;14.75;;;7.82;;
84286;SDS011;74445;55.252;61.092;2023-12-20T08:28:16;12.20;;;5.95;;
84286;SDS011;74445;55.252;61.092;2023-12-20T08:30:42;11.80;;;5.20;;
84286;SDS011;74445;55.252;61.092;2023-12-20T08:33:09;14.90;;;7.93;;
84286;SDS011;74445;55.252;61.092;2023-12-20T08:35:38;8.25;;;4.68;;
84286;SDS011;74445;55.252;61.092;2023-12-20T08:38:05;17.05;;;8.73;;
84286;SDS011;74445;55.252;61.092;2023-12-20T08:40:33;19.02;;;7.95;;
84286;SDS011;74445;55.252;61.092;2023-12-20T08:43:00;17.30;;;7.40;;
84286;SDS011;74445;55.252;61.092;2023-12-20T08:45:27;17.30;;;8.45;;
84286;SDS011;74445;55.252;61.092;2023-12-20T08:47:53;19.75;;;8.35;;
84286;SDS011;74445;55.252;61.092;2023-12-20T08:50:20;10.18;;;5.25;;
84286;SDS011;74445;55.252;61.092;2023-12-20T08:52:46;13.45;;;5.82;;
84286;SDS011;74445;55.252;61.092;2023-12-20T08:55:13;17.80;;;8.95;;
84286;SDS011;74445;55.252;61.092;2023-12-20T08:57:43;18.42;;;8.18;;
84286;SDS011;74445;55.252;61.092;2023-12-20T09:00:10;9.85;;;4.68;;
84286;SDS011;74445;55.252;61.092;2023-12-20T09:02:38;14.40;;;7.20;;
84286;SDS011;74445;55.252;61.092;2023-12-20T09:05:06;13.88;;;7.22;;
84286;SDS011;74445;55.252;61.092;2023-12-20T09:07:32;19.38;;;9.40;;
84286;SDS011;74445;55.252;61.092;2023-12-20T09:09:59;19.92;;;7.80;;
84286;SDS011;74445;55.252;61.092;2023-12-20T09:12:26;14.82;;;7.13;;
84286;SDS011;74445;55.252;61.092;2023-12-20T09:14:54;16.08;;;7.20;;
84286;SDS011;74445;55.252;61.092;2023-12-20T09:17:20;20.17;;;10.02;;
84286;SDS011;74445;55.252;61.092;2023-12-20T09:19:48;9.93;;;5.60;;
84286;SDS011;74445;55.252;61.092;2023-12-20T09:22:15;18.00;;;8.55;;
84286;SDS011;74445;55.252;61.092;2023-12-20T09:24:42;17.50;;;9.32;;
84286;SDS011;74445;55.252;61.092;2023-12-20T09:27:08;13.70;;;7.45;;
84286;SDS011;74445;55.252;61.092;2023-12-20T09:29:35;21.48;;;7.43;;
84286;SDS011;74445;55.252;61.092;2023-12-20T09:32:03;11.05;;;6.15;;
84286;SDS011;74445;55.252;61.092;2023-12-20T09:34:30;13.82;;;7.72;;
84286;SDS011;74445;55.252;61.092;2023-12-20T09:36:56;10.63;;;6.03;;
84286;SDS011;74445;55.252;61.092;2023-12-20T09:39:23;15.98;;;7.38;;
84286;SDS011;74445;55.252;61.092;2023-12-20T09:41:51;9.85;;;5.32;;
84286;SDS011;74445;55.252;61.092;2023-12-20T09:44:27;10.80;;;6.55;;
84286;SDS011;74445;55.252;61.092;2023-12-20T09:46:54;15.23;;;7.97;;
84286;SDS011;74445;55.252;61.092;2023-12-20T09:49:23;18.55;;;9.38;;
84286;SDS011;74445;55.252;61.092;2023-12-20T09:51:51;15.20;;;7.47;;
84286;SDS011;74445;55.252;61.092;2023-12-20T09:54:19;12.15;;;6.97;;
84286;SDS011;74445;55.252;61.092;2023-12-20T09:56:47;11.80;;;6.13;;
84286;SDS011;74445;55.252;61.092;2023-12-20T09:59:14;11.52;;;6.55;;
84286;SDS011;74445;55.252;61.092;2023-12-20T10:01:40;16.60;;;9.07;;
84286;SDS011;74445;55.252;61.092;2023-12-20T10:04:08;14.50;;;8.50;;
84286;SDS011;74445;55.252;61.092;2023-12-20T10:06:39;17.60;;;7.75;;
84286;SDS011;74445;55.252;61.092;2023-12-20T10:09:06;15.25;;;8.45;;
84286;SDS011;74445;55.252;61.092;2023-12-20T10:11:32;14.32;;;7.88;;
84286;SDS011;74445;55.252;61.092;2023-12-20T10:14:00;11.07;;;6.50;;
84286;SDS011;74445;55.252;61.092;2023-12-20T10:16:27;5.60;;;4.13;;
84286;SDS011;74445;55.252;61.092;2023-12-20T10:18:53;13.00;;;7.80;;
84286;SDS011;74445;55.252;61.092;2023-12-20T10:21:21;10.93;;;6.10;;
84286;SDS011;74445;55.252;61.092;2023-12-20T10:23:49;9.85;;;4.68;;
84286;SDS011;74445;55.252;61.092;2023-12-20T10:26:19;7.50;;;4.63;;
84286;SDS011;74445;55.252;61.092;2023-12-20T10:28:49;15.70;;;7.13;;
84286;SDS011;74445;55.252;61.092;2023-12-20T10:31:25;9.27;;;5.53;;
84286;SDS011;74445;55.252;61.092;2023-12-20T10:33:53;14.57;;;6.47;;
84286;SDS011;74445;55.252;61.092;2023-12-20T10:36:21;11.60;;;6.63;;
84286;SDS011;74445;55.252;61.092;2023-12-20T10:38:50;12.55;;;6.25;;
84286;SDS011;74445;55.252;61.092;2023-12-20T10:41:18;10.30;;;5.85;;
84286;SDS011;74445;55.252;61.092;2023-12-20T10:43:50;8.68;;;4.90;;
84286;SDS011;74445;55.252;61.092;2023-12-20T10:46:17;10.38;;;5.78;;
84286;SDS011;74445;55.252;61.092;2023-12-20T10:48:45;12.63;;;5.70;;
84286;SDS011;74445;55.252;61.092;2023-12-20T10:51:14;6.05;;;3.40;;
84286;SDS011;74445;55.252;61.092;2023-12-20T10:53:44;15.25;;;6.85;;
84286;SDS011;74445;55.252;61.092;2023-12-20T10:56:15;5.57;;;3.45;;
84286;SDS011;74445;55.252;61.092;2023-12-20T10:58:43;7.78;;;4.82;;
84286;SDS011;74445;55.252;61.092;2023-12-20T11:01:12;10.05;;;4.93;;
84286;SDS011;74445;55.252;61.092;2023-12-20T11:03:39;10.10;;;4.60;;
84286;SDS011;74445;55.252;61.092;2023-12-20T11:06:13;8.02;;;5.53;;
84286;SDS011;74445;55.252;61.092;2023-12-20T11:08:55;7.35;;;4.90;;
84286;SDS011;74445;55.252;61.092;2023-12-20T11:11:41;6.72;;;3.78;;
84286;SDS011;74445;55.252;61.092;2023-12-20T11:14:18;7.22;;;3.83;;
84286;SDS011;74445;55.252;61.092;2023-12-20T11:16:49;6.85;;;3.55;;
84286;SDS011;74445;55.252;61.092;2023-12-20T11:19:17;7.70;;;3.90;;
84286;SDS011;74445;55.252;61.092;2023-12-20T11:21:43;12.32;;;5.85;;
84286;SDS011;74445;55.252;61.092;2023-12-20T11:24:12;7.32;;;4.82;;
84286;SDS011;74445;55.252;61.092;2023-12-20T11:26:41;12.10;;;6.63;;
84286;SDS011;74445;55.252;61.092;2023-12-20T11:29:34;8.07;;;4.72;;
84286;SDS011;74445;55.252;61.092;2023-12-20T11:32:27;9.07;;;4.90;;
84286;SDS011;74445;55.252;61.092;2023-12-20T11:34:54;8.65;;;3.47;;
84286;SDS011;74445;55.252;61.092;2023-12-20T11:37:22;8.15;;;4.32;;
84286;SDS011;74445;55.252;61.092;2023-12-20T11:40:00;9.85;;;5.18;;
84286;SDS011;74445;55.252;61.092;2023-12-20T11:42:30;7.68;;;4.30;;
84286;SDS011;74445;55.252;61.092;2023-12-20T11:45:01;7.97;;;5.38;;
84286;SDS011;74445;55.252;61.092;2023-12-20T11:47:29;13.18;;;5.22;;
84286;SDS011;74445;55.252;61.092;2023-12-20T11:49:56;10.20;;;5.85;;
84286;SDS011;74445;55.252;61.092;2023-12-20T11:52:26;9.85;;;6.18;;
84286;SDS011;74445;55.252;61.092;2023-12-20T11:54:52;9.77;;;3.90;;
84286;SDS011;74445;55.252;61.092;2023-12-20T11:57:19;7.97;;;4.03;;
84286;SDS011;74445;55.252;61.092;2023-12-20T11:59:49;4.28;;;2.60;;
84286;SDS011;74445;55.252;61.092;2023-12-20T12:02:16;10.75;;;4.18;;
84286;SDS011;74445;55.252;61.092;2023-12-20T12:04:43;6.93;;;3.88;;
84286;SDS011;74445;55.252;61.092;2023-12-20T12:07:10;9.52;;;4.43;;
84286;SDS011;74445;55.252;61.092;2023-12-20T12:09:36;7.20;;;3.80;;
84286;SDS011;74445;55.252;61.092;2023-12-20T12:12:06;7.68;;;4.38;;
84286;SDS011;74445;55.252;61.092;2023-12-20T12:14:34;3.22;;;2.30;;
84286;SDS011;74445;55.252;61.092;2023-12-20T12:17:04;8.35;;;4.63;;
84286;SDS011;74445;55.252;61.092;2023-12-20T12:19:31;6.10;;;3.25;;
84286;SDS011;74445;55.252;61.092;2023-12-20T12:22:04;6.22;;;3.20;;
84286;SDS011;74445;55.252;61.092;2023-12-20T12:24:36;6.82;;;3.92;;
84286;SDS011;74445;55.252;61.092;2023-12-20T12:27:05;3.55;;;2.40;;
84286;SDS011;74445;55.252;61.092;2023-12-20T12:29:32;4.88;;;2.47;;
84286;SDS011;74445;55.252;61.092;2023-12-20T12:31:59;6.25;;;3.30;;
84286;SDS011;74445;55.252;61.092;2023-12-20T12:34:28;4.28;;;2.45;;
84286;SDS011;74445;55.252;61.092;2023-12-20T12:36:55;13.48;;;4.90;;
84286;SDS011;74445;55.252;61.092;2023-12-20T12:39:23;12.30;;;6.65;;
84286;SDS011;74445;55.252;61.092;2023-12-20T12:41:52;6.68;;;3.95;;
84286;SDS011;74445;55.252;61.092;2023-12-20T12:44:19;9.10;;;4.00;;
84286;SDS011;74445;55.252;61.092;2023-12-20T12:46:48;9.18;;;4.13;;
84286;SDS011;74445;55.252;61.092;2023-12-20T12:49:19;10.10;;;4.63;;
84286;SDS011;74445;55.252;61.092;2023-12-20T12:51:47;9.95;;;3.28;;
84286;SDS011;74445;55.252;61.092;2023-12-20T12:54:13;9.70;;;4.90;;
84286;SDS011;74445;55.252;61.092;2023-12-20T12:56:42;9.43;;;4.70;;
84286;SDS011;74445;55.252;61.092;2023-12-20T12:59:09;3.70;;;2.63;;
84286;SDS011;74445;55.252;61.092;2023-12-20T13:01:36;4.55;;;2.85;;
84286;SDS011;74445;55.252;61.092;2023-12-20T13:04:05;11.50;;;5.75;;
84286;SDS011;74445;55.252;61.092;2023-12-20T13:06:36;5.25;;;2.78;;
84286;SDS011;74445;55.252;61.092;2023-12-20T13:09:07;13.18;;;5.38;;
84286;SDS011;74445;55.252;61.092;2023-12-20T13:11:35;9.13;;;4.28;;
84286;SDS011;74445;55.252;61.092;2023-12-20T13:14:02;12.93;;;5.82;;
84286;SDS011;74445;55.252;61.092;2023-12-20T13:16:29;7.70;;;4.65;;
84286;SDS011;74445;55.252;61.092;2023-12-20T13:18:56;12.63;;;5.30;;
84286;SDS011;74445;55.252;61.092;2023-12-20T13:21:25;9.02;;;4.90;;
84286;SDS011;74445;55.252;61.092;2023-12-20T13:23:52;10.73;;;4.55;;
84286;SDS011;74445;55.252;61.092;2023-12-20T13:26:21;9.80;;;2.70;;
84286;SDS011;74445;55.252;61.092;2023-12-20T13:28:47;15.43;;;6.05;;
84286;SDS011;74445;55.252;61.092;2023-12-20T13:31:14;6.18;;;3.45;;
84286;SDS011;74445;55.252;61.092;2023-12-20T13:33:40;7.43;;;4.65;;
84286;SDS011;74445;55.252;61.092;2023-12-20T13:36:08;8.48;;;4.53;;
84286;SDS011;74445;55.252;61.092;2023-12-20T13:38:34;9.80;;;4.03;;
84286;SDS011;74445;55.252;61.092;2023-12-20T13:41:01;7.00;;;3.65;;
84286;SDS011;74445;55.252;61.092;2023-12-20T13:43:30;6.03;;;3.22;;
84286;SDS011;74445;55.252;61.092;2023-12-20T13:45:58;8.45;;;3.70;;
84286;SDS011;74445;55.252;61.092;2023-12-20T13:48:24;4.55;;;2.78;;
84286;SDS011;74445;55.252;61.092;2023-12-20T13:50:51;7.40;;;3.38;;
84286;SDS011;74445;55.252;61.092;2023-12-20T13:53:18;7.45;;;3.35;;
84286;SDS011;74445;55.252;61.092;2023-12-20T13:55:46;6.22;;;3.60;;
84286;SDS011;74445;55.252;61.092;2023-12-20T13:58:13;7.03;;;3.20;;
84286;SDS011;74445;55.252;61.092;2023-12-20T14:00:41;6.53;;;2.80;;
84286;SDS011;74445;55.252;61.092;2023-12-20T14:03:08;6.10;;;3.10;;
84286;SDS011;74445;55.252;61.092;2023-12-20T14:05:35;1.70;;;1.38;;
84286;SDS011;74445;55.252;61.092;2023-12-20T14:08:01;4.78;;;3.05;;
84286;SDS011;74445;55.252;61.092;2023-12-20T14:10:29;3.92;;;2.33;;
84286;SDS011;74445;55.252;61.092;2023-12-20T14:12:55;8.30;;;3.60;;
84286;SDS011;74445;55.252;61.092;2023-12-20T14:15:22;4.93;;;2.60;;
84286;SDS011;74445;55.252;61.092;2023-12-20T14:17:52;5.80;;;3.15;;
84286;SDS011;74445;55.252;61.092;2023-12-20T14:20:20;8.18;;;3.38;;
84286;SDS011;74445;55.252;61.092;2023-12-20T14:22:46;11.60;;;3.90;;
84286;SDS011;74445;55.252;61.092;2023-12-20T14:25:13;3.97;;;2.53;;
84286;SDS011;74445;55.252;61.092;2023-12-20T14:27:40;6.43;;;3.03;;
84286;SDS011;74445;55.252;61.092;2023-12-20T14:30:09;5.70;;;2.90;;
84286;SDS011;74445;55.252;61.092;2023-12-20T14:32:36;7.78;;;3.33;;